Weather Forecast for Al Bateen Airport  
Friday, October 20, 2017 (19:28 UTC)
Al Bateen Executive Airport
ICAO Code: OMAD
IATA Code: AZI
  • METAR OMAD 201900Z 31007KT CAVOK 30/19 Q1011 NOSIG=
  • TAF OMAD 201700Z 2018/2200 30006KT CAVOK BECMG 2100/2102 24005KT BECMG 2106/2108 32011KT BECMG 2119/2121 VRB02KT=
AL BATEEN (OMAD) 5 DAY OUTLOOK:
Sunday, 22/Oct/2017
HIGH:
34°C
LOW:
24°C
MIN. VISIBILITY:
4000 meters
WIND (DIRECTION/SPEED):
SSE at 5 - 7 knots (9 - 13 km/h) becoming NW at 10 - 15 knots (19 - 28 km/h)
WEATHER:
Hazy at first otherwise sunny.
RAINFALL:
Nil
Monday, 23/Oct/2017
HIGH:
34°C
LOW:
24°C
MIN. VISIBILITY:
4000 meters
WIND (DIRECTION/SPEED):
S at 5 - 7 knots (9 - 13 km/h) becoming NW at 10 - 15 knots (19 - 28 km/h)
WEATHER:
Hazy at first otherwise sunny.
RAINFALL:
Nil
Tuesday, 24/Oct/2017
HIGH:
34°C
LOW:
23°C
MIN. VISIBILITY:
6000 meters
WIND (DIRECTION/SPEED):
E at 5 - 7 knots (9 - 13 km/h) becoming NW at 10 - 15 knots (19 - 28 km/h)
WEATHER:
Hazy at first otherwise sunny.
RAINFALL:
Nil
Wednesday, 25/Oct/2017
HIGH:
35°C
LOW:
23°C
MIN. VISIBILITY:
4000 meters
WIND (DIRECTION/SPEED):
SE at 5 - 7 knots (9 - 13 km/h) becoming N at 10 - 15 knots (19 - 28 km/h)
WEATHER:
Hazy at first otherwise sunny.
RAINFALL:
Nil
Thursday, 26/Oct/2017
HIGH:
36°C
LOW:
24°C
MIN. VISIBILITY:
8000 meters
WIND (DIRECTION/SPEED):
E at 7 - 10 knots (13 - 19 km/h) becoming NW at 10 - 15 knots (19 - 28 km/h)
WEATHER:
Sunny
RAINFALL:
Nil